Weather at San Pedro Airport

Public forecast

Using degrees Celsius for public forecast. Weather courtesy of forecast.io.

Current aviation weather report (METAR) for San Pedro Airport

Report is more than 6 hours old.

Retrieved 2020/12/25 14:00 UTC (2 years ago):

DISP 251400Z 18008KT 9999 FEW015TCU 31/25 Q1007 NOSIG

Closest aviation forecast (TAF) to San Pedro Airport

Forecast is more than 12 hours old.

Closest forecast is Félix-Houphouët-Boigny International Airport, 166.4 nm (308.3 km) E. Retrieved 2022/09/17 18:14 UTC (11 days ago):

TAF DIAP 171755Z 1718/1824 23006KT 9999 SCT012 PROB30 TEMPO 1802/1806 BKN012 TEMPO 1820/1824 4000 RA BKN012